Time;durP1;ratioP1;P1;durP2;ratioP2;P2;SDS_P1;SDS_P2;PMS_P1;PMS_P2;Temp;Humidity;BMP_temperature;BMP_pressure;BME280_temperature;BME280_humidity;BME280_pressure;Samples;Min_cycle;Max_cycle;Signal;HPM_P1;HPM_P2
2021/11/28 00:01:06;;;;;;;10.45;5.50;;;;;;;11.69;62.98;96047.06;5039379;28;20139;-91
2021/11/28 00:03:32;;;;;;;7.22;4.82;;;;;;;11.38;62.79;96006.97;5034408;28;20056;-90
2021/11/28 00:05:59;;;;;;;8.70;4.38;;;;;;;11.56;62.85;96027.72;5028602;28;20468;-91
2021/11/28 00:08:59;;;;;;;8.73;4.38;;;;;;;11.61;62.96;96050.41;5036737;28;20024;-91
2021/11/28 00:11:33;;;;;;;14.63;5.63;;;;;;;11.33;63.39;96029.78;5036562;28;20051;-92
2021/11/28 00:16:28;;;;;;;4.30;2.72;;;;;;;11.76;62.42;96062.47;5046397;28;20092;-90
2021/11/28 00:18:54;;;;;;;13.15;5.60;;;;;;;11.89;62.39;96072.91;5036191;28;20031;-90
2021/11/28 00:21:21;;;;;;;9.20;5.35;;;;;;;11.50;62.77;96021.09;5026122;28;20500;-90
2021/11/28 00:27:09;;;;;;;10.60;5.38;;;;;;;11.79;62.93;96064.00;5058732;28;20431;-91
2021/11/28 00:29:35;;;;;;;10.48;6.47;;;;;;;11.60;63.10;96038.00;5038451;28;20036;-90
2021/11/28 00:32:01;;;;;;;17.17;7.53;;;;;;;11.34;63.87;96010.91;5044516;28;20476;-91
2021/11/28 00:34:27;;;;;;;18.00;9.10;;;;;;;11.13;64.84;96003.94;5031668;28;20030;-89
2021/11/28 00:36:53;;;;;;;19.00;10.77;;;;;;;10.98;65.79;96022.22;5029720;28;20067;-92
2021/11/28 00:39:18;;;;;;;19.08;10.32;;;;;;;10.67;65.90;95978.59;5032985;28;20115;-92
2021/11/28 00:41:44;;;;;;;17.55;9.25;;;;;;;11.08;66.10;96044.47;5025631;28;20039;-92
2021/11/28 00:44:10;;;;;;;12.52;5.00;;;;;;;11.12;65.56;96024.50;5034046;28;20032;-91
2021/11/28 00:46:35;;;;;;;10.52;4.70;;;;;;;11.00;66.52;96022.06;5023086;28;20119;-91
2021/11/28 00:49:03;;;;;;;8.35;4.13;;;;;;;10.87;67.49;96035.66;5021743;28;20496;-92
2021/11/28 00:53:59;;;;;;;8.32;4.22;;;;;;;10.09;69.55;95971.19;5042928;28;20029;-90
2021/11/28 00:56:24;;;;;;;14.20;5.05;;;;;;;10.34;70.94;96046.47;5033554;28;20058;-91
2021/11/28 00:58:50;;;;;;;8.10;4.63;;;;;;;9.88;71.87;95995.22;5025026;28;20491;-91
2021/11/28 01:01:16;;;;;;;11.75;4.63;;;;;;;9.83;72.50;96016.13;5033585;28;20028;-91
2021/11/28 01:03:42;;;;;;;13.73;6.65;;;;;;;9.88;72.94;96042.44;5033497;28;20021;-92
2021/11/28 01:06:08;;;;;;;7.55;4.55;;;;;;;9.72;73.25;96021.53;5033388;28;20058;-90
2021/11/28 01:08:33;;;;;;;8.63;5.28;;;;;;;9.72;73.39;96024.19;5029970;28;20029;-91
2021/11/28 01:10:59;;;;;;;10.75;5.80;;;;;;;9.59;73.65;96004.81;5036098;28;20381;-91
2021/11/28 01:13:25;;;;;;;13.23;5.90;;;;;;;9.69;74.04;96016.44;5029015;28;20028;-92
2021/11/28 01:15:51;;;;;;;9.75;5.50;;;;;;;9.50;74.47;95989.56;5028431;28;20046;-93
2021/11/28 01:18:16;;;;;;;14.57;8.02;;;;;;;9.74;74.71;96038.25;5031171;28;20037;-92
2021/11/28 01:20:42;;;;;;;16.55;10.20;;;;;;;9.80;74.93;96051.09;5028695;28;20103;-92
2021/11/28 01:23:08;;;;;;;22.17;12.32;;;;;;;9.86;75.12;96066.59;5027599;28;20540;-93
2021/11/28 01:25:34;;;;;;;26.25;12.23;;;;;;;9.67;75.65;96037.06;5038827;28;20079;-92
2021/11/28 01:28:00;;;;;;;23.83;12.43;;;;;;;9.93;75.20;96054.44;5028917;28;20396;-92
2021/11/28 01:30:25;;;;;;;33.40;17.58;;;;;;;9.72;75.10;96037.53;5033021;28;20061;-92
2021/11/28 01:32:51;;;;;;;30.15;15.85;;;;;;;9.81;74.91;96034.94;5025358;28;20065;-92
2021/11/28 01:35:18;;;;;;;30.42;15.38;;;;;;;9.90;74.40;96040.50;5021274;28;20034;-92
2021/11/28 01:37:44;;;;;;;28.92;14.77;;;;;;;9.83;74.44;96016.13;5022688;28;20489;-92
2021/11/28 01:40:17;;;;;;;25.02;13.93;;;;;;;9.62;74.31;95980.53;5030918;28;20120;-93
2021/11/28 01:42:45;;;;;;;18.27;9.15;;;;;;;9.79;73.62;96002.19;5020198;28;20030;-91
2021/11/28 01:45:20;;;;;;;26.92;13.07;;;;;;;9.99;73.26;96013.88;5022849;28;20029;-91
2021/11/28 01:47:46;;;;;;;29.35;14.70;;;;;;;10.06;73.42;96009.69;5028634;28;20430;-90
2021/11/28 01:50:11;;;;;;;27.55;14.45;;;;;;;10.15;73.34;96032.16;5030722;28;20034;-90
2021/11/28 01:52:40;;;;;;;39.65;17.00;;;;;;;9.99;73.36;96007.69;5033824;28;20118;-92
2021/11/28 01:55:12;;;;;;;31.38;14.70;;;;;;;9.96;73.99;96011.47;5018351;28;20037;-90
2021/11/28 01:57:39;;;;;;;28.98;15.07;;;;;;;9.83;73.80;95981.41;5015934;28;20035;-91
2021/11/28 02:00:10;;;;;;;28.75;15.32;;;;;;;9.98;73.73;96001.47;5016012;28;20092;-91
2021/11/28 02:02:39;;;;;;;21.25;10.65;;;;;;;9.97;73.99;96002.44;5025893;28;20043;-90
2021/11/28 02:05:05;;;;;;;8.15;5.22;;;;;;;9.86;75.00;96025.69;5029452;28;20032;-91
2021/11/28 02:07:31;;;;;;;9.65;4.53;;;;;;;9.57;76.07;95993.41;5035828;28;20049;-89
2021/11/28 02:09:57;;;;;;;7.22;4.53;;;;;;;9.35;76.55;95986.31;5026237;28;20432;-90
2021/11/28 02:12:26;;;;;;;11.68;5.00;;;;;;;9.42;77.33;95994.66;5013409;28;20042;-92
2021/11/28 02:14:52;;;;;;;8.95;5.10;;;;;;;9.43;77.48;95994.56;5025688;28;20057;-90
2021/11/28 02:17:18;;;;;;;9.55;4.28;;;;;;;9.58;77.87;96013.78;5028392;28;20040;-90
2021/11/28 02:19:43;;;;;;;9.20;5.13;;;;;;;9.62;77.25;96013.44;5030819;28;20040;-91
2021/11/28 02:22:09;;;;;;;10.98;4.40;;;;;;;9.71;77.42;96011.81;5019855;28;20171;-91
2021/11/28 02:24:36;;;;;;;9.77;4.15;;;;;;;9.41;77.70;95963.66;5032855;28;20436;-91
2021/11/28 02:27:01;;;;;;;9.13;4.53;;;;;;;9.49;78.27;95994.06;5028863;28;20041;-91
2021/11/28 02:29:27;;;;;;;7.63;4.45;;;;;;;9.23;78.52;95972.16;5027886;28;20079;-91
2021/11/28 02:31:53;;;;;;;6.25;4.45;;;;;;;9.32;79.77;96007.91;5021239;28;20029;-91
2021/11/28 02:34:20;;;;;;;10.23;4.70;;;;;;;9.31;79.63;95994.72;5034682;28;20025;-92
2021/11/28 02:36:53;;;;;;;13.40;6.43;;;;;;;9.31;80.30;96008.91;5038199;28;20029;-91
2021/11/28 02:39:20;;;;;;;8.88;4.60;;;;;;;9.25;80.01;95993.41;5028053;28;20116;-91
2021/11/28 02:41:46;;;;;;;9.63;5.93;;;;;;;9.37;79.98;96003.06;5033795;28;20420;-92
2021/11/28 02:44:13;;;;;;;10.20;5.47;;;;;;;9.32;80.12;95994.56;5035674;28;20026;-91
2021/11/28 02:46:40;;;;;;;14.98;5.45;;;;;;;9.48;80.37;96028.84;5039344;28;20032;-89
2021/11/28 02:49:08;;;;;;;11.02;5.85;;;;;;;9.24;80.92;95981.88;5027114;28;20441;-90
2021/11/28 02:55:06;;;;;;;8.13;5.03;;;;;;;9.46;80.79;96020.13;5056572;28;20051;-91
2021/11/28 02:57:32;;;;;;;11.02;5.35;;;;;;;9.35;80.99;96005.00;5024286;28;20029;-91
2021/11/28 02:59:58;;;;;;;10.05;4.90;;;;;;;9.22;80.85;95982.97;5021591;28;20033;-92
2021/11/28 03:02:24;;;;;;;11.10;5.57;;;;;;;9.35;80.52;95985.50;5019921;28;20029;-92
2021/11/28 03:04:49;;;;;;;8.57;4.97;;;;;;;9.20;80.42;95966.22;5029620;28;20032;-91
2021/11/28 03:07:17;;;;;;;9.02;4.93;;;;;;;9.33;80.73;95971.41;5022949;28;20044;-90
2021/11/28 03:09:42;;;;;;;10.55;4.75;;;;;;;9.14;81.16;95948.06;5018887;28;20075;-92
2021/11/28 03:12:08;;;;;;;11.88;5.38;;;;;;;9.36;81.47;95987.16;5027897;28;20087;-90
2021/11/28 03:14:34;;;;;;;9.20;4.88;;;;;;;9.03;82.06;95937.44;5027913;28;20029;-91
2021/11/28 03:17:00;;;;;;;11.43;5.82;;;;;;;9.28;82.42;95993.16;5034816;28;20032;-90
2021/11/28 03:19:25;;;;;;;13.25;6.45;;;;;;;8.73;82.91;95923.94;5029451;28;20044;-90
2021/11/28 03:21:51;;;;;;;15.93;7.35;;;;;;;9.02;84.00;95994.41;5029593;28;20033;-91
2021/11/28 03:24:17;;;;;;;19.83;8.23;;;;;;;8.97;84.33;95986.78;5014573;28;20037;-90
2021/11/28 03:26:43;;;;;;;21.67;9.68;;;;;;;8.84;84.74;95972.75;5028077;28;20140;-89
2021/11/28 03:29:16;;;;;;;23.25;9.23;;;;;;;8.87;85.22;95975.16;4995627;28;20034;-93
2021/11/28 03:31:43;;;;;;;;;;;;;;;9.00;85.02;95991.88;5003346;28;20065;-91
2021/11/28 03:34:10;;;;;;;21.33;10.20;;;;;;;8.81;85.77;95975.66;5011356;28;19999;-91
2021/11/28 03:36:52;;;;;;;22.00;12.05;;;;;;;8.59;86.16;95951.69;5012318;28;20133;-90
2021/11/28 03:39:21;;;;;;;38.17;12.90;;;;;;;8.71;86.45;95969.34;4991116;28;20044;-90
2021/11/28 03:41:49;;;;;;;25.98;12.00;;;;;;;8.54;86.87;95937.88;5014667;28;20097;-89
2021/11/28 03:44:15;;;;;;;34.50;15.88;;;;;;;8.44;86.59;95912.94;5010390;28;20045;-90
2021/11/28 03:46:40;;;;;;;23.65;11.40;;;;;;;8.43;86.18;95904.09;5001518;28;20043;-88
2021/11/28 03:49:06;;;;;;;19.67;10.38;;;;;;;8.61;86.25;95936.44;4994670;28;20033;-91
2021/11/28 03:51:33;;;;;;;19.25;8.30;;;;;;;8.59;86.23;95939.22;5013886;28;20030;-91
2021/11/28 03:53:59;;;;;;;13.65;6.97;;;;;;;8.73;85.74;95972.78;5003642;28;20100;-92
2021/11/28 03:56:25;;;;;;;17.05;8.15;;;;;;;8.45;85.91;95942.13;5000756;28;20117;-92
2021/11/28 03:58:52;;;;;;;14.35;8.40;;;;;;;8.54;87.08;95991.19;5032324;28;20036;-91
2021/11/28 04:01:18;;;;;;;19.67;10.35;;;;;;;7.77;89.11;95899.56;4987923;28;20030;-92
2021/11/28 04:03:44;;;;;;;21.63;9.65;;;;;;;7.96;90.50;95939.78;5012048;28;20029;-81
2021/11/28 04:06:11;;;;;;;20.20;10.40;;;;;;;7.84;91.32;95972.66;5035790;28;20416;-90
2021/11/28 04:08:38;;;;;;;29.90;12.27;;;;;;;7.78;92.75;95978.44;5023722;28;20128;-92
2021/11/28 04:11:03;;;;;;;31.60;15.02;;;;;;;7.66;94.22;95983.84;5018375;28;20093;-88
2021/11/28 04:13:29;;;;;;;26.00;14.13;;;;;;;7.60;94.87;95991.31;5014566;28;20033;-91
2021/11/28 04:15:55;;;;;;;28.98;14.35;;;;;;;7.63;95.33;96020.34;4986523;28;20018;-91
2021/11/28 04:18:21;;;;;;;28.40;13.55;;;;;;;7.61;95.33;96016.97;5010852;28;20053;-90
2021/11/28 04:20:48;;;;;;;30.13;13.20;;;;;;;7.53;94.86;96007.88;5029655;28;20033;-90
2021/11/28 04:23:14;;;;;;;27.88;12.40;;;;;;;7.88;94.95;96071.72;5010055;28;20083;-90
2021/11/28 04:25:40;;;;;;;29.40;14.95;;;;;;;7.76;95.72;96069.97;5019176;28;20048;-91
2021/11/28 04:28:07;;;;;;;32.97;17.75;;;;;;;7.64;96.02;96069.94;5030002;28;20029;-92
2021/11/28 04:30:33;;;;;;;25.83;13.60;;;;;;;7.53;96.43;96061.06;5038295;28;20029;-91
2021/11/28 04:32:59;;;;;;;40.42;20.60;;;;;;;7.69;96.24;96096.19;5026625;28;20029;-90
2021/11/28 04:35:25;;;;;;;39.28;19.92;;;;;;;7.97;96.18;96138.44;5022597;28;20061;-91
2021/11/28 04:37:50;;;;;;;33.88;17.50;;;;;;;7.86;95.63;96119.78;5027550;28;20036;-90
2021/11/28 04:40:19;;;;;;;38.00;16.65;;;;;;;7.83;95.25;96112.00;5030158;28;20029;-90
2021/11/28 04:42:44;;;;;;;27.08;14.10;;;;;;;8.13;93.79;96122.19;5044786;28;20036;-89
2021/11/28 04:45:11;;;;;;;27.02;13.38;;;;;;;8.09;93.35;96086.94;5031515;28;20029;-91
2021/11/28 04:47:38;;;;;;;25.10;13.50;;;;;;;8.15;92.77;96088.31;5019981;28;20067;-91
2021/11/28 04:50:09;;;;;;;27.20;13.80;;;;;;;8.11;93.13;96085.03;5025044;28;20476;-91
2021/11/28 04:52:37;;;;;;;24.08;12.70;;;;;;;7.86;93.18;96071.84;5013305;28;20096;-94
2021/11/28 04:55:05;;;;;;;32.75;12.30;;;;;;;7.82;93.24;96089.00;5021784;28;20029;-92
2021/11/28 04:57:30;;;;;;;19.58;11.07;;;;;;;7.52;94.28;96072.66;5031500;28;20037;-92
2021/11/28 04:59:56;;;;;;;25.42;11.43;;;;;;;7.18;95.26;96045.03;5022786;28;20126;-93
2021/11/28 05:02:22;;;;;;;20.85;10.43;;;;;;;7.15;96.13;96041.72;5005793;28;20025;-92
2021/11/28 05:04:48;;;;;;;19.92;9.95;;;;;;;7.42;97.76;96106.22;5019890;28;20040;-93
2021/11/28 05:10:36;;;;;;;18.77;10.35;;;;;;;7.39;98.67;96072.72;5047742;28;20044;-91
2021/11/28 05:13:02;;;;;;;26.73;12.43;;;;;;;7.21;98.68;96022.69;5049401;28;20033;-90
2021/11/28 05:15:27;;;;;;;20.35;11.27;;;;;;;7.35;98.81;96046.47;5032482;28;20380;-88
2021/11/28 05:17:53;;;;;;;63.08;26.08;;;;;;;7.53;98.68;96058.41;5020255;28;20028;-90
2021/11/28 05:20:19;;;;;;;37.13;15.57;;;;;;;7.57;98.18;96051.88;5026949;28;20563;-91
2021/11/28 05:22:44;;;;;;;53.78;24.98;;;;;;;7.78;98.11;96089.38;5035398;28;20424;-91
2021/11/28 05:25:10;;;;;;;24.33;12.10;;;;;;;7.34;97.78;96021.69;5033693;28;20386;-91
2021/11/28 05:27:36;;;;;;;24.88;11.70;;;;;;;7.49;97.36;96025.00;5030342;28;20040;-93
2021/11/28 05:30:04;;;;;;;57.53;30.08;;;;;;;7.49;97.06;96025.00;5026090;28;20043;-91
2021/11/28 05:32:30;;;;;;;41.42;21.15;;;;;;;7.41;97.50;96014.91;5034701;28;20041;-91
2021/11/28 05:34:56;;;;;;;40.70;18.77;;;;;;;7.79;97.15;96102.56;5022074;28;20036;-92
2021/11/28 05:37:22;;;;;;;36.63;14.85;;;;;;;7.40;97.67;96052.28;5035553;28;20038;-91
2021/11/28 05:39:47;;;;;;;33.25;13.73;;;;;;;7.23;97.90;96010.97;5031644;28;20032;-91
2021/11/28 05:42:13;;;;;;;28.25;15.60;;;;;;;7.44;98.10;96059.09;5025844;28;20035;-91
2021/11/28 05:44:39;;;;;;;37.53;21.00;;;;;;;7.46;97.82;96070.44;5026054;28;20040;-90
2021/11/28 05:47:05;;;;;;;40.72;21.73;;;;;;;7.64;97.29;96088.56;5033271;28;20035;-91
2021/11/28 05:49:30;;;;;;;40.17;23.63;;;;;;;7.47;97.42;96057.06;5036053;28;20116;-92
2021/11/28 05:51:56;;;;;;;41.33;22.08;;;;;;;7.76;97.05;96076.16;5023099;28;20421;-91
2021/11/28 05:54:25;;;;;;;39.40;22.15;;;;;;;7.49;96.03;95993.09;5033802;28;20033;-91
2021/11/28 05:56:50;;;;;;;35.78;17.83;;;;;;;7.77;95.73;96029.97;5037851;28;20138;-91
2021/11/28 05:59:16;;;;;;;30.45;16.35;;;;;;;7.81;95.99;96036.78;5029056;28;20082;-89
2021/11/28 06:01:42;;;;;;;22.60;11.45;;;;;;;7.75;95.36;96026.59;5023232;28;20064;-91
2021/11/28 06:04:17;;;;;;;22.27;10.00;;;;;;;7.81;94.85;96036.78;5035826;28;20392;-91
2021/11/28 06:06:42;;;;;;;17.90;9.00;;;;;;;7.54;95.37;96031.69;5035213;28;20055;-89
2021/11/28 06:09:08;;;;;;;24.60;10.38;;;;;;;7.50;96.88;96048.84;5026004;28;20044;-88
2021/11/28 06:11:34;;;;;;;26.60;11.85;;;;;;;7.35;98.65;96041.16;5031328;28;20048;-89
2021/11/28 06:14:00;;;;;;;33.63;15.65;;;;;;;7.36;98.71;96029.53;5037786;28;20111;-91
2021/11/28 06:16:35;;;;;;;44.10;19.05;;;;;;;7.27;99.00;96025.75;5035808;28;20029;-90
2021/11/28 06:19:01;;;;;;;46.47;20.98;;;;;;;7.17;99.03;96006.09;5034386;28;20087;-81
2021/11/28 06:21:26;;;;;;;42.50;19.15;;;;;;;7.43;99.56;96034.28;5061068;28;20032;-94
2021/11/28 06:23:57;;;;;;;45.60;21.30;;;;;;;7.57;100.00;96028.78;5035781;28;20037;-92
2021/11/28 06:26:23;;;;;;;57.00;26.05;;;;;;;8.92;92.33;96039.63;5022202;28;20056;-92
2021/11/28 06:28:49;;;;;;;49.13;25.83;;;;;;;10.51;81.34;96047.72;5048025;28;20039;-93
2021/11/28 06:31:22;;;;;;;42.45;22.85;;;;;;;12.22;70.04;96043.00;5048385;28;20458;-93
2021/11/28 06:33:48;;;;;;;27.17;15.25;;;;;;;13.80;62.41;96017.03;5048526;28;20024;-92
2021/11/28 06:36:14;;;;;;;43.45;24.40;;;;;;;14.81;58.20;96030.03;5035514;28;20480;-87
2021/11/28 06:38:39;;;;;;;40.75;21.10;;;;;;;16.80;53.21;96084.00;5031465;28;20027;-85
2021/11/28 06:41:05;;;;;;;34.22;20.27;;;;;;;17.90;48.95;96082.44;5029325;28;20436;-90
2021/11/28 06:48:02;;;;;;;;;;;;;;;;;;;;;
2021/11/28 06:50:28;;;;;;;29.92;17.45;;;;;;;16.31;50.71;96138.91;4997391;28;20096;-93
2021/11/28 06:52:54;;;;;;;27.45;16.98;;;;;;;16.18;50.16;96079.19;5026387;28;20053;-93
2021/11/28 06:55:20;;;;;;;36.42;20.88;;;;;;;16.87;48.44;96056.31;5030002;28;20028;-92
2021/11/28 06:57:46;;;;;;;36.65;21.48;;;;;;;17.87;46.83;96114.19;5027558;28;20059;-90
2021/11/28 07:00:12;;;;;;;41.95;21.08;;;;;;;17.76;46.60;96098.38;5043649;28;20040;-92
2021/11/28 07:02:38;;;;;;;34.30;20.45;;;;;;;17.09;48.36;96071.81;5047761;28;20025;-94
2021/11/28 07:08:27;;;;;;;14.82;9.93;;;;;;;18.90;43.98;96011.84;5081345;28;20047;-92
2021/11/28 07:10:58;;;;;;;17.52;11.43;;;;;;;19.99;42.61;96060.84;5047609;28;20428;-94
2021/11/28 07:13:25;;;;;;;32.88;19.08;;;;;;;20.47;40.59;96002.28;5045251;28;20103;-92
2021/11/28 07:15:51;;;;;;;29.92;17.42;;;;;;;21.05;39.93;96078.09;5046300;28;20412;-91
2021/11/28 07:18:17;;;;;;;27.90;14.88;;;;;;;21.26;38.95;96028.28;5046275;28;20497;-93
2021/11/28 07:20:43;;;;;;;26.60;14.80;;;;;;;22.33;37.89;96051.34;5047647;28;20092;-94
2021/11/28 07:23:46;;;;;;;26.48;13.60;;;;;;;23.16;36.60;96086.31;5047648;28;20029;-96
2021/11/28 07:26:12;;;;;;;31.23;16.30;;;;;;;23.67;35.33;96072.06;5025259;28;20678;-92
2021/11/28 07:28:41;;;;;;;37.80;18.27;;;;;;;24.40;34.19;96078.19;5025641;28;20043;-92
2021/11/28 07:31:07;;;;;;;35.72;17.77;;;;;;;24.63;34.08;96076.63;5034105;28;20511;-93
2021/11/28 07:33:36;;;;;;;28.83;14.38;;;;;;;25.41;32.10;96059.91;5025605;28;20207;-92
2021/11/28 07:39:24;;;;;;;44.50;24.88;;;;;;;26.61;30.45;96034.59;5063080;28;20040;-94
2021/11/28 07:41:55;;;;;;;33.65;23.30;;;;;;;26.27;30.81;96086.28;5024690;28;20476;-94
2021/11/28 07:44:23;;;;;;;42.10;24.57;;;;;;;25.63;31.73;96044.78;5026739;28;20164;-93
2021/11/28 07:46:49;;;;;;;24.13;14.60;;;;;;;25.72;30.95;96024.22;5042750;28;20085;-93
2021/11/28 07:49:15;;;;;;;24.13;14.00;;;;;;;26.32;31.20;96009.66;5029837;28;20055;-96
2021/11/28 07:51:45;;;;;;;13.63;7.75;;;;;;;26.10;29.90;95972.78;5038605;28;20086;-96
2021/11/28 07:54:11;;;;;;;9.13;5.85;;;;;;;24.71;31.88;95997.03;5039265;28;20029;-95
2021/11/28 07:56:39;;;;;;;15.00;7.53;;;;;;;25.80;31.96;96054.94;5029737;28;20029;-95
2021/11/28 08:03:12;;;;;;;12.10;5.40;;;;;;;25.14;32.34;96059.28;5064786;28;20051;-96
2021/11/28 08:09:30;;;;;;;7.78;3.42;;;;;;;24.34;33.84;96065.38;5074149;28;20044;-95
2021/11/28 08:11:58;;;;;;;6.90;4.30;;;;;;;23.12;34.85;96003.25;5314134;22;20068;-95
2021/11/28 08:17:46;;;;;;;5.10;3.50;;;;;;;22.81;36.11;96040.34;5048302;28;20055;-81
2021/11/28 08:20:13;;;;;;;10.13;4.57;;;;;;;23.00;35.39;96059.47;5017743;28;20128;-82
2021/11/28 08:22:39;;;;;;;6.18;4.15;;;;;;;22.59;35.81;96064.19;5041526;28;20469;-80
2021/11/28 08:25:07;;;;;;;4.07;2.15;;;;;;;20.97;37.84;96069.25;5016536;28;20029;-80
2021/11/28 08:27:33;;;;;;;8.45;4.30;;;;;;;20.58;39.65;96069.69;5034194;28;20086;-81
2021/11/28 08:30:03;;;;;;;5.65;3.65;;;;;;;20.81;38.56;96074.94;5034544;28;20025;-80
2021/11/28 08:32:29;;;;;;;4.78;2.83;;;;;;;20.48;38.02;96066.47;5051657;28;20032;-81
2021/11/28 08:34:54;;;;;;;4.72;1.70;;;;;;;19.41;39.11;96056.28;5017837;28;20032;-80
2021/11/28 08:37:20;;;;;;;5.22;3.17;;;;;;;19.35;39.55;96078.66;5033904;28;20037;-80
2021/11/28 08:39:46;;;;;;;3.90;2.28;;;;;;;19.25;40.02;96083.53;5052019;28;20025;-80
2021/11/28 08:42:13;;;;;;;2.05;1.55;;;;;;;19.43;39.59;96098.44;5033854;28;20100;-79
2021/11/28 08:44:39;;;;;;;6.57;2.33;;;;;;;19.04;40.32;96114.00;5034238;28;20024;-80
2021/11/28 08:47:07;;;;;;;2.90;1.30;;;;;;;19.04;39.94;96107.78;5017407;28;20488;-79
2021/11/28 08:49:34;;;;;;;4.82;2.55;;;;;;;19.13;40.03;96093.97;5006472;28;20406;-79
2021/11/28 08:52:00;;;;;;;4.07;2.10;;;;;;;19.27;39.66;96119.41;5017245;28;20449;-79
2021/11/28 08:54:30;;;;;;;7.10;3.22;;;;;;;19.45;39.26;96114.53;5016896;28;20139;-79
2021/11/28 08:56:56;;;;;;;10.75;4.70;;;;;;;19.70;39.08;96110.53;5034230;28;20029;-80
2021/11/28 08:59:21;;;;;;;6.88;3.00;;;;;;;19.79;38.53;96109.41;5033263;28;20025;-80
2021/11/28 09:01:47;;;;;;;3.95;2.55;;;;;;;19.92;38.19;96109.59;5033544;28;20491;-80
2021/11/28 09:04:13;;;;;;;3.28;1.75;;;;;;;19.59;38.68;96100.16;5050882;28;20056;-79
2021/11/28 09:06:38;;;;;;;2.55;1.88;;;;;;;19.20;40.01;96096.78;5016795;28;20110;-79
2021/11/28 09:09:04;;;;;;;4.75;2.85;;;;;;;18.82;40.93;96113.03;5016950;28;20086;-79
2021/11/28 09:11:30;;;;;;;2.50;1.70;;;;;;;18.71;41.44;96109.88;5033195;28;20033;-79
2021/11/28 09:13:56;;;;;;;3.80;1.88;;;;;;;18.28;42.06;96103.19;5033061;28;20053;-79
2021/11/28 09:16:22;;;;;;;4.88;2.70;;;;;;;18.18;42.78;96110.72;5016735;28;20035;-79
2021/11/28 09:19:01;;;;;;;2.88;1.80;;;;;;;18.33;42.15;96103.50;5033152;28;20036;-79
2021/11/28 09:21:27;;;;;;;4.00;2.00;;;;;;;18.65;41.66;96108.75;5033162;28;20368;-79
2021/11/28 09:26:41;;;;;;;2.22;1.45;;;;;;;18.83;41.31;96130.09;5050668;28;20519;-80
2021/11/28 09:29:06;;;;;;;4.43;1.77;;;;;;;18.97;40.93;96112.22;5016432;28;20563;-79
2021/11/28 09:31:32;;;;;;;4.55;2.13;;;;;;;19.39;40.35;96107.97;5033044;28;20021;-79
2021/11/28 09:33:59;;;;;;;3.50;2.45;;;;;;;19.22;40.48;96089.31;5033102;28;20047;-79
2021/11/28 09:36:27;;;;;;;3.50;1.90;;;;;;;18.81;41.16;96091.53;5032600;28;20028;-79
2021/11/28 09:38:53;;;;;;;4.57;2.22;;;;;;;18.27;42.24;96090.69;5016976;28;20035;-80
2021/11/28 09:41:19;;;;;;;2.60;1.88;;;;;;;18.07;42.62;96090.28;5032915;28;20025;-79
2021/11/28 09:43:51;;;;;;;5.90;2.63;;;;;;;17.94;43.09;96078.31;5016185;28;20104;-79
2021/11/28 09:46:21;;;;;;;;;;;;;;;18.04;43.07;96054.59;5033541;28;20412;-79
2021/11/28 09:48:49;;;;;;;6.68;2.90;;;;;;;18.15;42.48;96049.63;5016556;28;20358;-79
2021/11/28 09:51:16;;;;;;;2.72;2.00;;;;;;;18.40;41.90;96047.59;5033044;28;20017;-79
2021/11/28 09:53:43;;;;;;;1.92;1.30;;;;;;;18.72;40.42;96044.69;5016101;28;20480;-79
2021/11/28 09:56:10;;;;;;;5.50;1.70;;;;;;;18.35;41.50;96050.03;5033225;28;20025;-79
2021/11/28 09:58:36;;;;;;;2.03;1.27;;;;;;;18.20;41.71;96054.53;5016128;28;20021;-79
2021/11/28 10:01:02;;;;;;;2.75;1.80;;;;;;;18.66;40.93;96056.25;5032625;28;20028;-78
2021/11/28 10:03:27;;;;;;;2.38;1.55;;;;;;;19.61;38.80;96057.41;5033139;28;20135;-78
2021/11/28 10:05:54;;;;;;;3.88;1.85;;;;;;;19.83;38.36;96059.16;5033185;28;20040;-79
2021/11/28 10:08:21;;;;;;;3.30;2.30;;;;;;;19.48;38.60;96038.22;5015746;28;20036;-79
2021/11/28 10:11:21;;;;;;;3.20;1.80;;;;;;;19.68;38.32;96068.34;5032450;28;20037;-80
2021/11/28 10:13:49;;;;;;;1.98;1.33;;;;;;;19.65;38.03;96068.72;5050105;28;20041;-81
2021/11/28 10:16:15;;;;;;;3.00;1.63;;;;;;;19.36;39.22;96067.63;5032742;28;20032;-80
2021/11/28 10:18:43;;;;;;;2.00;1.40;;;;;;;18.94;39.73;96065.50;5033088;28;20036;-80
2021/11/28 10:21:08;;;;;;;2.70;1.65;;;;;;;18.70;39.99;96062.16;5015885;28;20037;-80
2021/11/28 10:23:34;;;;;;;5.75;2.72;;;;;;;18.73;40.41;96054.53;5021721;28;20032;-80
2021/11/28 10:26:14;;;;;;;3.40;1.58;;;;;;;18.79;40.34;96040.25;5015776;28;20061;-80
2021/11/28 10:29:11;;;;;;;10.20;5.00;;;;;;;18.73;40.24;96046.41;5015826;28;20036;-80
2021/11/28 10:31:56;;;;;;;6.25;4.07;;;;;;;18.48;40.75;96028.63;5032338;28;20420;-82
2021/11/28 10:34:36;;;;;;;6.95;4.00;;;;;;;18.11;41.41;96029.38;5032541;28;20025;-82
2021/11/28 10:37:11;;;;;;;2.88;2.00;;;;;;;18.14;41.31;96017.34;5015974;28;20043;-81
2021/11/28 10:39:48;;;;;;;6.38;2.72;;;;;;;18.03;41.29;96018.59;5015909;28;20382;-81
2021/11/28 10:42:22;;;;;;;7.80;3.22;;;;;;;18.08;41.22;96015.34;5049834;28;20104;-81
2021/11/28 10:45:03;;;;;;;2.67;1.60;;;;;;;18.16;41.05;96013.44;5011875;28;20025;-81
2021/11/28 10:47:56;;;;;;;3.03;1.80;;;;;;;18.29;40.90;96015.56;5013261;28;20029;-81
2021/11/28 10:50:33;;;;;;;8.35;3.50;;;;;;;18.63;40.08;96001.59;5036552;28;20138;-81
2021/11/28 10:53:15;;;;;;;9.50;4.00;;;;;;;18.59;40.33;95998.41;5035896;28;20485;-81
2021/11/28 10:55:46;;;;;;;3.83;2.22;;;;;;;18.29;40.24;95999.31;5019318;28;20413;-80
2021/11/28 10:58:20;;;;;;;3.65;2.20;;;;;;;18.15;40.57;95991.97;5036083;28;20489;-80
2021/11/28 11:00:45;;;;;;;2.92;1.85;;;;;;;18.07;40.70;95997.44;5019424;28;20028;-80
2021/11/28 11:03:13;;;;;;;5.32;2.30;;;;;;;18.14;40.90;95999.25;5053758;28;20439;-79
2021/11/28 11:05:39;;;;;;;3.47;2.60;;;;;;;18.12;40.67;95998.56;5035549;28;20044;-81
2021/11/28 11:11:07;;;;;;;4.72;2.90;;;;;;;19.32;38.38;95990.38;5052007;28;20436;-82
2021/11/28 11:13:32;;;;;;;5.35;1.80;;;;;;;19.29;37.77;95998.91;5035208;28;20072;-81
2021/11/28 11:15:58;;;;;;;6.03;1.88;;;;;;;19.37;36.97;95973.56;5035791;28;20036;-80
2021/11/28 11:18:24;;;;;;;1.48;1.17;;;;;;;19.55;37.20;95982.19;5018860;28;20032;-81
2021/11/28 11:20:52;;;;;;;1.15;0.82;;;;;;;19.27;37.21;96000.13;5035421;28;20029;-81
2021/11/28 11:23:32;;;;;;;2.72;1.67;;;;;;;18.96;37.86;95975.88;5019226;28;20029;-82
2021/11/28 11:26:15;;;;;;;5.50;2.30;;;;;;;18.98;38.40;95989.28;5018875;28;20111;-81
2021/11/28 11:29:03;;;;;;;6.05;3.55;;;;;;;18.78;39.00;96006.03;5034985;28;20111;-80
2021/11/28 11:31:29;;;;;;;4.63;2.47;;;;;;;18.49;39.30;95984.28;5036011;28;20029;-80
2021/11/28 11:33:55;;;;;;;6.65;3.78;;;;;;;18.27;39.80;95971.59;5035452;28;20025;-80
2021/11/28 11:36:22;;;;;;;11.68;5.25;;;;;;;18.28;39.88;95981.38;5035480;28;20029;-80
2021/11/28 11:38:48;;;;;;;2.95;2.00;;;;;;;18.23;39.42;95984.63;5035631;28;20024;-80
2021/11/28 11:41:14;;;;;;;6.63;3.03;;;;;;;18.27;39.57;95990.53;5035338;28;20029;-79
2021/11/28 11:43:40;;;;;;;4.20;1.90;;;;;;;18.28;39.52;95995.75;5034958;28;20039;-79
2021/11/28 11:46:09;;;;;;;2.58;1.80;;;;;;;18.24;39.53;95997.13;5035348;28;20025;-81
2021/11/28 11:48:35;;;;;;;2.53;1.50;;;;;;;18.25;39.50;96003.38;5018796;28;20028;-80
2021/11/28 11:51:10;;;;;;;4.72;2.30;;;;;;;18.43;39.45;96009.34;5018391;28;20028;-81
2021/11/28 11:53:36;;;;;;;4.45;2.42;;;;;;;18.46;38.99;95987.31;5019323;28;20496;-80
2021/11/28 11:56:03;;;;;;;4.38;3.03;;;;;;;18.23;39.57;95991.91;5035045;28;20029;-79
2021/11/28 11:58:46;;;;;;;2.40;1.48;;;;;;;18.38;39.41;96000.94;5035377;28;20412;-80
2021/11/28 12:01:26;;;;;;;7.00;2.92;;;;;;;18.49;38.93;95999.69;5035138;28;20465;-80
2021/11/28 12:03:54;;;;;;;3.58;2.00;;;;;;;18.43;39.38;96006.63;5019480;28;20483;-82
2021/11/28 12:06:56;;;;;;;3.60;2.63;;;;;;;18.74;38.83;96010.13;5018448;28;20115;-81
2021/11/28 12:09:26;;;;;;;3.28;1.55;;;;;;;18.63;38.08;95985.34;4936693;29;20085;-79
2021/11/28 12:12:05;;;;;;;11.82;4.93;;;;;;;18.59;38.62;95984.88;5017597;28;20541;-78
2021/11/28 12:14:31;;;;;;;5.32;2.83;;;;;;;18.62;38.80;95981.81;5018044;28;20039;-80
2021/11/28 12:16:58;;;;;;;9.00;4.32;;;;;;;18.69;38.65;95990.03;5017670;28;20032;-80
2021/11/28 12:19:41;;;;;;;5.38;2.97;;;;;;;18.57;38.61;95994.22;5035130;28;20033;-82